This is the latest recevied weather packets stored in our database for station/object OE7BJT-13. If no packets are shown the sender has not sent any weather packets the latest 10 day(s).
| Time | Temp. | Humidity | Pressure | Rain* | Wind** | Luminosity | Snow |
|---|---|---|---|---|---|---|---|
| 1788352223 | 27.78° C | 43% | 686 hPa | - | - | - | - |
| 1788351617 | 28.89° C | 39% | 687 hPa | - | - | - | - |
| 1788351011 | 28.33° C | 40% | 687 hPa | - | - | - | - |
| 1788350406 | 28.33° C | 39% | 687 hPa | - | - | - | - |
| 1788349800 | 28.33° C | 43% | 687 hPa | - | - | - | - |
| 1788348589 | 26.67° C | 44% | 685 hPa | - | - | - | - |
| 1788347983 | 27.78° C | 41% | 686 hPa | - | - | - | - |
| 1788347378 | 28.33° C | 40% | 687 hPa | - | - | - | - |
| 1788346772 | 28.33° C | 40% | 687 hPa | - | - | - | - |
| 1788346167 | 27.22° C | 44% | 686 hPa | - | - | - | - |
| 1788345561 | 27.78° C | 40% | 686 hPa | - | - | - | - |
| 1788344955 | 27.22° C | 41% | 686 hPa | - | - | - | - |
| 1788344350 | 27.22° C | 43% | 686 hPa | - | - | - | - |
| 1788343744 | 26.11° C | 42% | 685 hPa | - | - | - | - |
| 1788343139 | 26.11° C | 47% | 684 hPa | - | - | - | - |
| 1788341927 | 24.44° C | 57% | 683 hPa | - | - | - | - |
| 1788341322 | 22.78° C | 59% | 681 hPa | - | - | - | - |
| 1788340111 | 23.33° C | 61% | 682 hPa | - | - | - | - |
| 1788339505 | 23.89° C | 59% | 683 hPa | - | - | - | - |
| 1788338899 | 22.78° C | 64% | 681 hPa | - | - | - | - |
| 1788338294 | 21.67° C | 67% | 680 hPa | - | - | - | - |
| 1788337083 | 21.11° C | 73% | 680 hPa | - | - | - | - |
| 1788336477 | 20.56° C | 76% | 679 hPa | - | - | - | - |
| 1788335871 | 20.56° C | 84% | 679 hPa | - | - | - | - |
| 1788335266 | 18.33° C | 95% | 677 hPa | - | - | - | - |
* Rain since midnight (hover to see other rain measurements)
** Current wind speed in m/s (hover to see current wind gust speed)